sensor_id;sensor_type;location;lat;lon;timestamp;pressure;altitude;pressure_sealevel;temperature
67501;BMP180;54349;52.528;19.760;2023-05-07T00:00:28;101281.80;;;22.00
67501;BMP180;54349;52.528;19.760;2023-05-07T00:03:16;101288.00;;;22.00
67501;BMP180;54349;52.528;19.760;2023-05-07T00:05:44;101286.00;;;22.00
67501;BMP180;54349;52.528;19.760;2023-05-07T00:08:13;101288.60;;;21.90
67501;BMP180;54349;52.528;19.760;2023-05-07T00:10:41;101287.60;;;21.90
67501;BMP180;54349;52.528;19.760;2023-05-07T00:13:10;101294.60;;;21.90
67501;BMP180;54349;52.528;19.760;2023-05-07T00:15:39;101290.00;;;21.90
67501;BMP180;54349;52.528;19.760;2023-05-07T00:18:07;101290.80;;;21.82
67501;BMP180;54349;52.528;19.760;2023-05-07T00:20:36;101291.40;;;21.80
67501;BMP180;54349;52.528;19.760;2023-05-07T00:23:04;101291.00;;;21.80
67501;BMP180;54349;52.528;19.760;2023-05-07T00:25:32;101295.40;;;21.80
67501;BMP180;54349;52.528;19.760;2023-05-07T00:28:01;101301.20;;;21.80
67501;BMP180;54349;52.528;19.760;2023-05-07T00:30:32;101301.00;;;21.72
67501;BMP180;54349;52.528;19.760;2023-05-07T00:33:00;101308.60;;;21.70
67501;BMP180;54349;52.528;19.760;2023-05-07T00:35:29;101313.00;;;21.70
67501;BMP180;54349;52.528;19.760;2023-05-07T00:37:58;101314.80;;;21.70
67501;BMP180;54349;52.528;19.760;2023-05-07T00:40:26;101318.20;;;21.70
67501;BMP180;54349;52.528;19.760;2023-05-07T00:42:54;101317.80;;;21.60
67501;BMP180;54349;52.528;19.760;2023-05-07T00:45:28;101320.60;;;21.60
67501;BMP180;54349;52.528;19.760;2023-05-07T00:48:00;101317.40;;;21.60
67501;BMP180;54349;52.528;19.760;2023-05-07T00:50:30;101318.40;;;21.60
67501;BMP180;54349;52.528;19.760;2023-05-07T00:53:00;101320.40;;;21.52
67501;BMP180;54349;52.528;19.760;2023-05-07T00:55:28;101319.20;;;21.50
67501;BMP180;54349;52.528;19.760;2023-05-07T00:57:57;101320.60;;;21.50
67501;BMP180;54349;52.528;19.760;2023-05-07T01:00:25;101324.40;;;21.50
67501;BMP180;54349;52.528;19.760;2023-05-07T01:02:54;101327.00;;;21.50
67501;BMP180;54349;52.528;19.760;2023-05-07T01:05:24;101326.60;;;21.48
67501;BMP180;54349;52.528;19.760;2023-05-07T01:07:55;101323.40;;;21.40
67501;BMP180;54349;52.528;19.760;2023-05-07T01:10:25;101320.20;;;21.40
67501;BMP180;54349;52.528;19.760;2023-05-07T01:12:55;101320.20;;;21.40
67501;BMP180;54349;52.528;19.760;2023-05-07T01:15:23;101319.80;;;21.40
67501;BMP180;54349;52.528;19.760;2023-05-07T01:17:52;101319.00;;;21.36
67501;BMP180;54349;52.528;19.760;2023-05-07T01:20:25;101319.40;;;21.30
67501;BMP180;54349;52.528;19.760;2023-05-07T01:22:57;101320.20;;;21.30
67501;BMP180;54349;52.528;19.760;2023-05-07T01:25:26;101325.60;;;21.30
67501;BMP180;54349;52.528;19.760;2023-05-07T01:27:57;101326.80;;;21.30
67501;BMP180;54349;52.528;19.760;2023-05-07T01:30:30;101327.20;;;21.30
67501;BMP180;54349;52.528;19.760;2023-05-07T01:33:06;101326.40;;;21.30
67501;BMP180;54349;52.528;19.760;2023-05-07T01:35:45;101325.60;;;21.20
67501;BMP180;54349;52.528;19.760;2023-05-07T01:38:16;101325.60;;;21.20
67501;BMP180;54349;52.528;19.760;2023-05-07T01:40:45;101324.80;;;21.20
67501;BMP180;54349;52.528;19.760;2023-05-07T01:43:15;101328.20;;;21.20
67501;BMP180;54349;52.528;19.760;2023-05-07T01:45:45;101329.40;;;21.20
67501;BMP180;54349;52.528;19.760;2023-05-07T01:48:14;101330.20;;;21.18
67501;BMP180;54349;52.528;19.760;2023-05-07T01:50:44;101327.20;;;21.10
67501;BMP180;54349;52.528;19.760;2023-05-07T01:53:14;101327.40;;;21.10
67501;BMP180;54349;52.528;19.760;2023-05-07T01:55:44;101324.80;;;21.10
67501;BMP180;54349;52.528;19.760;2023-05-07T01:58:13;101327.80;;;21.10
67501;BMP180;54349;52.528;19.760;2023-05-07T02:00:41;101328.80;;;21.10
67501;BMP180;54349;52.528;19.760;2023-05-07T02:03:09;101333.00;;;21.10
67501;BMP180;54349;52.528;19.760;2023-05-07T02:05:43;101333.20;;;21.08
67501;BMP180;54349;52.528;19.760;2023-05-07T02:08:31;101334.40;;;21.04
67501;BMP180;54349;52.528;19.760;2023-05-07T02:11:00;101340.00;;;21.00
67501;BMP180;54349;52.528;19.760;2023-05-07T02:13:33;101342.00;;;21.00
67501;BMP180;54349;52.528;19.760;2023-05-07T02:16:02;101336.40;;;21.00
67501;BMP180;54349;52.528;19.760;2023-05-07T02:18:31;101337.20;;;21.00
67501;BMP180;54349;52.528;19.760;2023-05-07T02:21:00;101341.60;;;21.00
67501;BMP180;54349;52.528;19.760;2023-05-07T02:23:29;101338.00;;;21.00
67501;BMP180;54349;52.528;19.760;2023-05-07T02:25:58;101346.00;;;21.00
67501;BMP180;54349;52.528;19.760;2023-05-07T02:28:26;101343.40;;;20.90
67501;BMP180;54349;52.528;19.760;2023-05-07T02:30:59;101344.20;;;20.90
67501;BMP180;54349;52.528;19.760;2023-05-07T02:33:29;101348.20;;;20.90
67501;BMP180;54349;52.528;19.760;2023-05-07T02:36:10;101347.20;;;20.90
67501;BMP180;54349;52.528;19.760;2023-05-07T02:39:05;101352.40;;;20.90
67501;BMP180;54349;52.528;19.760;2023-05-07T02:41:34;101361.60;;;20.90
67501;BMP180;54349;52.528;19.760;2023-05-07T02:44:05;101363.60;;;20.90
67501;BMP180;54349;52.528;19.760;2023-05-07T02:46:34;101362.60;;;20.90
67501;BMP180;54349;52.528;19.760;2023-05-07T02:49:06;101363.20;;;20.80
67501;BMP180;54349;52.528;19.760;2023-05-07T02:51:35;101365.00;;;20.80
67501;BMP180;54349;52.528;19.760;2023-05-07T02:54:05;101366.60;;;20.80
67501;BMP180;54349;52.528;19.760;2023-05-07T02:56:35;101361.80;;;20.80
67501;BMP180;54349;52.528;19.760;2023-05-07T02:59:04;101358.60;;;20.80
67501;BMP180;54349;52.528;19.760;2023-05-07T03:01:34;101360.60;;;20.80
67501;BMP180;54349;52.528;19.760;2023-05-07T03:04:06;101356.20;;;20.80
67501;BMP180;54349;52.528;19.760;2023-05-07T03:06:34;101360.20;;;20.80
67501;BMP180;54349;52.528;19.760;2023-05-07T03:09:02;101361.60;;;20.76
67501;BMP180;54349;52.528;19.760;2023-05-07T03:11:31;101359.20;;;20.74
67501;BMP180;54349;52.528;19.760;2023-05-07T03:14:00;101362.00;;;20.70
67501;BMP180;54349;52.528;19.760;2023-05-07T03:16:28;101369.80;;;20.70
67501;BMP180;54349;52.528;19.760;2023-05-07T03:18:58;101370.60;;;20.70
67501;BMP180;54349;52.528;19.760;2023-05-07T03:21:26;101376.80;;;20.70
67501;BMP180;54349;52.528;19.760;2023-05-07T03:23:57;101377.80;;;20.70
67501;BMP180;54349;52.528;19.760;2023-05-07T03:26:26;101388.60;;;20.70
67501;BMP180;54349;52.528;19.760;2023-05-07T03:28:54;101393.00;;;20.70
67501;BMP180;54349;52.528;19.760;2023-05-07T03:31:23;101395.20;;;20.70
67501;BMP180;54349;52.528;19.760;2023-05-07T03:33:56;101393.20;;;20.70
67501;BMP180;54349;52.528;19.760;2023-05-07T03:36:25;101397.20;;;20.62
67501;BMP180;54349;52.528;19.760;2023-05-07T03:38:56;101396.40;;;20.60
67501;BMP180;54349;52.528;19.760;2023-05-07T03:41:26;101394.20;;;20.60
67501;BMP180;54349;52.528;19.760;2023-05-07T03:43:55;101394.40;;;20.60
67501;BMP180;54349;52.528;19.760;2023-05-07T03:46:23;101396.20;;;20.60
67501;BMP180;54349;52.528;19.760;2023-05-07T03:48:55;101398.20;;;20.60
67501;BMP180;54349;52.528;19.760;2023-05-07T03:51:23;101393.40;;;20.60
67501;BMP180;54349;52.528;19.760;2023-05-07T03:53:52;101392.00;;;20.60
67501;BMP180;54349;52.528;19.760;2023-05-07T03:56:22;101396.40;;;20.60
67501;BMP180;54349;52.528;19.760;2023-05-07T03:58:55;101398.40;;;20.60
67501;BMP180;54349;52.528;19.760;2023-05-07T04:01:24;101401.20;;;20.60
67501;BMP180;54349;52.528;19.760;2023-05-07T04:03:52;101399.80;;;20.60
67501;BMP180;54349;52.528;19.760;2023-05-07T04:06:21;101398.80;;;20.60
67501;BMP180;54349;52.528;19.760;2023-05-07T04:08:50;101395.80;;;20.60
67501;BMP180;54349;52.528;19.760;2023-05-07T04:11:18;101401.20;;;20.56
67501;BMP180;54349;52.528;19.760;2023-05-07T04:13:47;101408.20;;;20.50
67501;BMP180;54349;52.528;19.760;2023-05-07T04:16:16;101406.00;;;20.56
67501;BMP180;54349;52.528;19.760;2023-05-07T04:18:45;101410.40;;;20.50
67501;BMP180;54349;52.528;19.760;2023-05-07T04:21:19;101411.80;;;20.50
67501;BMP180;54349;52.528;19.760;2023-05-07T04:23:49;101416.40;;;20.50
67501;BMP180;54349;52.528;19.760;2023-05-07T04:26:18;101424.80;;;20.50
67501;BMP180;54349;52.528;19.760;2023-05-07T04:28:47;101424.40;;;20.50
67501;BMP180;54349;52.528;19.760;2023-05-07T04:31:16;101424.40;;;20.50
67501;BMP180;54349;52.528;19.760;2023-05-07T04:33:47;101428.80;;;20.50
67501;BMP180;54349;52.528;19.760;2023-05-07T04:36:16;101431.20;;;20.50
67501;BMP180;54349;52.528;19.760;2023-05-07T04:38:50;101426.40;;;20.50
67501;BMP180;54349;52.528;19.760;2023-05-07T04:41:19;101432.40;;;20.50
67501;BMP180;54349;52.528;19.760;2023-05-07T04:43:48;101438.80;;;20.50
67501;BMP180;54349;52.528;19.760;2023-05-07T04:46:18;101440.80;;;20.50
67501;BMP180;54349;52.528;19.760;2023-05-07T04:48:48;101442.20;;;20.50
67501;BMP180;54349;52.528;19.760;2023-05-07T04:51:16;101454.60;;;20.50
67501;BMP180;54349;52.528;19.760;2023-05-07T04:53:45;101454.40;;;20.50
67501;BMP180;54349;52.528;19.760;2023-05-07T04:56:14;101458.60;;;20.50
67501;BMP180;54349;52.528;19.760;2023-05-07T04:58:43;101457.00;;;20.50
67501;BMP180;54349;52.528;19.760;2023-05-07T05:01:12;101457.40;;;20.50
67501;BMP180;54349;52.528;19.760;2023-05-07T05:03:41;101456.20;;;20.50
67501;BMP180;54349;52.528;19.760;2023-05-07T05:06:10;101460.40;;;20.50
67501;BMP180;54349;52.528;19.760;2023-05-07T05:08:39;101458.80;;;20.48
67501;BMP180;54349;52.528;19.760;2023-05-07T05:11:09;101462.20;;;20.48
67501;BMP180;54349;52.528;19.760;2023-05-07T05:13:39;101454.60;;;20.48
67501;BMP180;54349;52.528;19.760;2023-05-07T05:16:15;101456.20;;;20.44
67501;BMP180;54349;52.528;19.760;2023-05-07T05:18:44;101455.80;;;20.48
67501;BMP180;54349;52.528;19.760;2023-05-07T05:21:14;101462.80;;;20.46
67501;BMP180;54349;52.528;19.760;2023-05-07T05:23:43;101468.00;;;20.44
67501;BMP180;54349;52.528;19.760;2023-05-07T05:26:13;101468.40;;;20.44
67501;BMP180;54349;52.528;19.760;2023-05-07T05:28:43;101468.60;;;20.40
67501;BMP180;54349;52.528;19.760;2023-05-07T05:31:12;101475.40;;;20.46
67501;BMP180;54349;52.528;19.760;2023-05-07T05:33:43;101472.20;;;20.46
67501;BMP180;54349;52.528;19.760;2023-05-07T05:36:12;101474.00;;;20.44
67501;BMP180;54349;52.528;19.760;2023-05-07T05:38:41;101472.00;;;20.40
67501;BMP180;54349;52.528;19.760;2023-05-07T05:41:10;101472.80;;;20.44
67501;BMP180;54349;52.528;19.760;2023-05-07T05:43:40;101482.00;;;20.44
67501;BMP180;54349;52.528;19.760;2023-05-07T05:46:12;101484.60;;;20.48
67501;BMP180;54349;52.528;19.760;2023-05-07T05:48:41;101489.00;;;20.50
67501;BMP180;54349;52.528;19.760;2023-05-07T05:51:11;101489.20;;;20.46
67501;BMP180;54349;52.528;19.760;2023-05-07T05:53:40;101488.40;;;20.46
67501;BMP180;54349;52.528;19.760;2023-05-07T05:56:09;101489.20;;;20.48
67501;BMP180;54349;52.528;19.760;2023-05-07T05:58:39;101491.40;;;20.50
67501;BMP180;54349;52.528;19.760;2023-05-07T06:01:10;101493.00;;;20.50
67501;BMP180;54349;52.528;19.760;2023-05-07T06:03:41;101495.80;;;20.50
67501;BMP180;54349;52.528;19.760;2023-05-07T06:06:13;101499.20;;;20.50
67501;BMP180;54349;52.528;19.760;2023-05-07T06:08:43;101500.80;;;20.50
67501;BMP180;54349;52.528;19.760;2023-05-07T06:11:14;101506.40;;;20.50
67501;BMP180;54349;52.528;19.760;2023-05-07T06:13:45;101500.60;;;20.50
67501;BMP180;54349;52.528;19.760;2023-05-07T06:16:14;101512.20;;;20.50
67501;BMP180;54349;52.528;19.760;2023-05-07T06:18:44;101508.00;;;20.50
67501;BMP180;54349;52.528;19.760;2023-05-07T06:21:16;101516.60;;;20.50
67501;BMP180;54349;52.528;19.760;2023-05-07T06:23:44;101520.60;;;20.50
67501;BMP180;54349;52.528;19.760;2023-05-07T06:26:14;101521.00;;;20.50
67501;BMP180;54349;52.528;19.760;2023-05-07T06:28:47;101520.40;;;20.50
67501;BMP180;54349;52.528;19.760;2023-05-07T06:31:19;101522.00;;;20.50
67501;BMP180;54349;52.528;19.760;2023-05-07T06:34:11;101521.60;;;20.50
67501;BMP180;54349;52.528;19.760;2023-05-07T06:36:43;101524.80;;;20.50
67501;BMP180;54349;52.528;19.760;2023-05-07T06:39:27;101520.20;;;20.50
67501;BMP180;54349;52.528;19.760;2023-05-07T06:41:57;101517.60;;;20.50
67501;BMP180;54349;52.528;19.760;2023-05-07T06:44:31;101519.40;;;20.50
67501;BMP180;54349;52.528;19.760;2023-05-07T06:47:13;101526.00;;;20.50
67501;BMP180;54349;52.528;19.760;2023-05-07T06:49:47;101536.40;;;20.50
67501;BMP180;54349;52.528;19.760;2023-05-07T06:52:18;101532.80;;;20.50
67501;BMP180;54349;52.528;19.760;2023-05-07T06:54:51;101529.00;;;20.50
67501;BMP180;54349;52.528;19.760;2023-05-07T06:57:22;101532.20;;;20.60
67501;BMP180;54349;52.528;19.760;2023-05-07T06:59:52;101536.80;;;20.58
67501;BMP180;54349;52.528;19.760;2023-05-07T07:02:21;101542.60;;;20.58
67501;BMP180;54349;52.528;19.760;2023-05-07T07:04:50;101543.40;;;20.60
67501;BMP180;54349;52.528;19.760;2023-05-07T07:07:20;101543.80;;;20.60
67501;BMP180;54349;52.528;19.760;2023-05-07T07:09:50;101551.80;;;20.60
67501;BMP180;54349;52.528;19.760;2023-05-07T07:12:21;101542.80;;;20.60
67501;BMP180;54349;52.528;19.760;2023-05-07T07:14:53;101543.80;;;20.60
67501;BMP180;54349;52.528;19.760;2023-05-07T07:17:24;101543.60;;;20.60
67501;BMP180;54349;52.528;19.760;2023-05-07T07:19:55;101541.40;;;20.60
67501;BMP180;54349;52.528;19.760;2023-05-07T07:22:25;101544.20;;;20.60
67501;BMP180;54349;52.528;19.760;2023-05-07T07:24:54;101543.40;;;20.60
67501;BMP180;54349;52.528;19.760;2023-05-07T07:27:23;101543.80;;;20.60
67501;BMP180;54349;52.528;19.760;2023-05-07T07:29:58;101545.40;;;20.60
67501;BMP180;54349;52.528;19.760;2023-05-07T07:32:33;101546.20;;;20.60
67501;BMP180;54349;52.528;19.760;2023-05-07T07:35:05;101546.60;;;20.60
67501;BMP180;54349;52.528;19.760;2023-05-07T07:37:35;101543.00;;;20.60
67501;BMP180;54349;52.528;19.760;2023-05-07T07:40:05;101547.60;;;20.60
67501;BMP180;54349;52.528;19.760;2023-05-07T07:42:34;101547.20;;;20.60
67501;BMP180;54349;52.528;19.760;2023-05-07T07:45:05;101546.80;;;20.60
67501;BMP180;54349;52.528;19.760;2023-05-07T07:47:36;101547.20;;;20.60
67501;BMP180;54349;52.528;19.760;2023-05-07T07:50:08;101554.20;;;20.60
67501;BMP180;54349;52.528;19.760;2023-05-07T07:52:37;101549.60;;;20.60
67501;BMP180;54349;52.528;19.760;2023-05-07T07:55:07;101558.20;;;20.62
67501;BMP180;54349;52.528;19.760;2023-05-07T07:57:36;101562.20;;;20.64
67501;BMP180;54349;52.528;19.760;2023-05-07T08:00:06;101561.00;;;20.66
67501;BMP180;54349;52.528;19.760;2023-05-07T08:02:44;101559.20;;;20.70
67501;BMP180;54349;52.528;19.760;2023-05-07T08:05:18;101557.40;;;20.70
67501;BMP180;54349;52.528;19.760;2023-05-07T08:07:47;101559.00;;;20.70
67501;BMP180;54349;52.528;19.760;2023-05-07T08:10:23;101555.00;;;20.70
67501;BMP180;54349;52.528;19.760;2023-05-07T08:12:56;101555.20;;;20.70
67501;BMP180;54349;52.528;19.760;2023-05-07T08:15:24;101561.40;;;20.70
67501;BMP180;54349;52.528;19.760;2023-05-07T08:17:53;101558.60;;;20.70
67501;BMP180;54349;52.528;19.760;2023-05-07T08:20:23;101554.60;;;20.70
67501;BMP180;54349;52.528;19.760;2023-05-07T08:22:52;101563.20;;;20.70
67501;BMP180;54349;52.528;19.760;2023-05-07T08:25:21;101564.20;;;20.70
67501;BMP180;54349;52.528;19.760;2023-05-07T08:27:49;101555.40;;;20.70
67501;BMP180;54349;52.528;19.760;2023-05-07T08:30:18;101563.80;;;20.70
67501;BMP180;54349;52.528;19.760;2023-05-07T08:32:49;101563.20;;;20.70
67501;BMP180;54349;52.528;19.760;2023-05-07T08:35:18;101555.20;;;20.70
67501;BMP180;54349;52.528;19.760;2023-05-07T08:37:46;101562.00;;;20.70
67501;BMP180;54349;52.528;19.760;2023-05-07T08:40:16;101560.40;;;20.70
67501;BMP180;54349;52.528;19.760;2023-05-07T08:42:48;101562.40;;;20.74
67501;BMP180;54349;52.528;19.760;2023-05-07T08:45:20;101564.20;;;20.78
67501;BMP180;54349;52.528;19.760;2023-05-07T08:48:16;101568.40;;;20.80
67501;BMP180;54349;52.528;19.760;2023-05-07T08:50:51;101568.80;;;20.80
67501;BMP180;54349;52.528;19.760;2023-05-07T08:53:21;101572.00;;;20.80
67501;BMP180;54349;52.528;19.760;2023-05-07T08:55:52;101573.00;;;20.80
67501;BMP180;54349;52.528;19.760;2023-05-07T08:58:21;101574.80;;;20.80
67501;BMP180;54349;52.528;19.760;2023-05-07T09:00:53;101573.60;;;20.80
67501;BMP180;54349;52.528;19.760;2023-05-07T09:03:22;101581.80;;;20.80
67501;BMP180;54349;52.528;19.760;2023-05-07T09:05:52;101578.40;;;20.80
67501;BMP180;54349;52.528;19.760;2023-05-07T09:08:26;101582.60;;;20.80
67501;BMP180;54349;52.528;19.760;2023-05-07T09:10:56;101580.60;;;20.80
67501;BMP180;54349;52.528;19.760;2023-05-07T09:13:28;101580.60;;;20.80
67501;BMP180;54349;52.528;19.760;2023-05-07T09:15:57;101584.60;;;20.80
67501;BMP180;54349;52.528;19.760;2023-05-07T09:18:26;101588.20;;;20.80
67501;BMP180;54349;52.528;19.760;2023-05-07T09:20:55;101588.60;;;20.86
67501;BMP180;54349;52.528;19.760;2023-05-07T09:23:24;101592.60;;;20.86
67501;BMP180;54349;52.528;19.760;2023-05-07T09:26:00;101591.60;;;20.90
67501;BMP180;54349;52.528;19.760;2023-05-07T09:28:31;101588.20;;;20.90
67501;BMP180;54349;52.528;19.760;2023-05-07T09:31:01;101589.00;;;20.90
67501;BMP180;54349;52.528;19.760;2023-05-07T09:33:29;101600.40;;;20.90
67501;BMP180;54349;52.528;19.760;2023-05-07T09:36:03;101599.80;;;20.90
67501;BMP180;54349;52.528;19.760;2023-05-07T09:38:33;101606.40;;;20.90
67501;BMP180;54349;52.528;19.760;2023-05-07T09:41:11;101604.20;;;20.92
67501;BMP180;54349;52.528;19.760;2023-05-07T09:43:54;101613.20;;;20.90
67501;BMP180;54349;52.528;19.760;2023-05-07T09:46:30;101616.40;;;20.98
67501;BMP180;54349;52.528;19.760;2023-05-07T09:49:02;101614.40;;;21.00
67501;BMP180;54349;52.528;19.760;2023-05-07T09:51:43;101612.80;;;21.00
67501;BMP180;54349;52.528;19.760;2023-05-07T09:54:14;101613.40;;;21.00
67501;BMP180;54349;52.528;19.760;2023-05-07T09:56:45;101614.40;;;21.00
67501;BMP180;54349;52.528;19.760;2023-05-07T09:59:15;101617.60;;;21.00
67501;BMP180;54349;52.528;19.760;2023-05-07T10:01:45;101613.60;;;21.00
67501;BMP180;54349;52.528;19.760;2023-05-07T10:04:14;101617.00;;;21.00
67501;BMP180;54349;52.528;19.760;2023-05-07T10:06:44;101622.80;;;21.00
67501;BMP180;54349;52.528;19.760;2023-05-07T10:09:14;101621.40;;;21.04
67501;BMP180;54349;52.528;19.760;2023-05-07T10:11:44;101617.40;;;21.10
67501;BMP180;54349;52.528;19.760;2023-05-07T10:14:14;101622.00;;;21.10
67501;BMP180;54349;52.528;19.760;2023-05-07T10:16:43;101620.60;;;21.10
67501;BMP180;54349;52.528;19.760;2023-05-07T10:19:17;101622.20;;;21.10
67501;BMP180;54349;52.528;19.760;2023-05-07T10:22:05;101623.60;;;21.10
67501;BMP180;54349;52.528;19.760;2023-05-07T10:24:37;101628.00;;;21.10
67501;BMP180;54349;52.528;19.760;2023-05-07T10:27:13;101630.20;;;21.10
67501;BMP180;54349;52.528;19.760;2023-05-07T10:30:25;101625.00;;;21.10
67501;BMP180;54349;52.528;19.760;2023-05-07T10:33:01;101626.60;;;21.10
67501;BMP180;54349;52.528;19.760;2023-05-07T10:35:43;101626.20;;;21.10
67501;BMP180;54349;52.528;19.760;2023-05-07T10:38:13;101623.40;;;21.16
67501;BMP180;54349;52.528;19.760;2023-05-07T10:40:43;101629.80;;;21.20
67501;BMP180;54349;52.528;19.760;2023-05-07T10:43:15;101628.60;;;21.20
67501;BMP180;54349;52.528;19.760;2023-05-07T10:46:18;101624.00;;;21.20
67501;BMP180;54349;52.528;19.760;2023-05-07T10:51:39;101627.20;;;21.30
67501;BMP180;54349;52.528;19.760;2023-05-07T10:56:50;101638.40;;;21.30
67501;BMP180;54349;52.528;19.760;2023-05-07T10:59:30;101639.00;;;21.30
67501;BMP180;54349;52.528;19.760;2023-05-07T11:02:05;101636.40;;;21.30
67501;BMP180;54349;52.528;19.760;2023-05-07T11:05:20;101632.40;;;21.30
67501;BMP180;54349;52.528;19.760;2023-05-07T11:08:03;101634.80;;;21.30
67501;BMP180;54349;52.528;19.760;2023-05-07T11:10:56;101632.60;;;21.30
67501;BMP180;54349;52.528;19.760;2023-05-07T11:13:49;101637.00;;;21.30
67501;BMP180;54349;52.528;19.760;2023-05-07T11:17:02;101643.40;;;21.30
67501;BMP180;54349;52.528;19.760;2023-05-07T11:19:54;101638.40;;;21.30
67501;BMP180;54349;52.528;19.760;2023-05-07T11:25:19;101642.40;;;21.30
67501;BMP180;54349;52.528;19.760;2023-05-07T11:27:53;101644.00;;;21.30
67501;BMP180;54349;52.528;19.760;2023-05-07T11:30:22;101648.20;;;21.30
67501;BMP180;54349;52.528;19.760;2023-05-07T11:32:50;101645.80;;;21.38
67501;BMP180;54349;52.528;19.760;2023-05-07T11:35:23;101636.40;;;21.40
67501;BMP180;54349;52.528;19.760;2023-05-07T11:37:59;101642.20;;;21.40
67501;BMP180;54349;52.528;19.760;2023-05-07T11:40:28;101641.40;;;21.40
67501;BMP180;54349;52.528;19.760;2023-05-07T11:42:56;101640.20;;;21.48
67501;BMP180;54349;52.528;19.760;2023-05-07T11:45:24;101640.60;;;21.50
67501;BMP180;54349;52.528;19.760;2023-05-07T11:47:54;101638.60;;;21.50
67501;BMP180;54349;52.528;19.760;2023-05-07T11:50:22;101636.80;;;21.50
67501;BMP180;54349;52.528;19.760;2023-05-07T11:52:51;101646.20;;;21.52
67501;BMP180;54349;52.528;19.760;2023-05-07T11:55:20;101647.40;;;21.58
67501;BMP180;54349;52.528;19.760;2023-05-07T11:57:50;101653.60;;;21.60
67501;BMP180;54349;52.528;19.760;2023-05-07T12:00:19;101653.60;;;21.60
67501;BMP180;54349;52.528;19.760;2023-05-07T12:02:47;101649.00;;;21.64
67501;BMP180;54349;52.528;19.760;2023-05-07T12:05:15;101649.40;;;21.70
67501;BMP180;54349;52.528;19.760;2023-05-07T12:07:44;101648.60;;;21.70
67501;BMP180;54349;52.528;19.760;2023-05-07T12:10:12;101651.80;;;21.80
67501;BMP180;54349;52.528;19.760;2023-05-07T12:12:41;101653.60;;;21.80
67501;BMP180;54349;52.528;19.760;2023-05-07T12:15:17;101653.60;;;21.80
67501;BMP180;54349;52.528;19.760;2023-05-07T12:17:46;101659.40;;;21.88
67501;BMP180;54349;52.528;19.760;2023-05-07T12:20:17;101653.40;;;21.90
67501;BMP180;54349;52.528;19.760;2023-05-07T12:22:50;101656.80;;;22.00
67501;BMP180;54349;52.528;19.760;2023-05-07T12:25:21;101655.40;;;22.00
67501;BMP180;54349;52.528;19.760;2023-05-07T12:27:53;101652.60;;;22.10
67501;BMP180;54349;52.528;19.760;2023-05-07T12:30:23;101649.40;;;22.10
67501;BMP180;54349;52.528;19.760;2023-05-07T12:32:55;101652.40;;;22.10
67501;BMP180;54349;52.528;19.760;2023-05-07T12:35:39;101648.40;;;22.10
67501;BMP180;54349;52.528;19.760;2023-05-07T12:38:14;101653.40;;;22.10
67501;BMP180;54349;52.528;19.760;2023-05-07T12:40:47;101655.40;;;22.20
67501;BMP180;54349;52.528;19.760;2023-05-07T12:43:20;101648.80;;;22.20
67501;BMP180;54349;52.528;19.760;2023-05-07T12:45:51;101653.00;;;22.30
67501;BMP180;54349;52.528;19.760;2023-05-07T12:48:20;101655.00;;;22.30
67501;BMP180;54349;52.528;19.760;2023-05-07T12:50:50;101654.20;;;22.30
67501;BMP180;54349;52.528;19.760;2023-05-07T12:53:23;101658.20;;;22.30
67501;BMP180;54349;52.528;19.760;2023-05-07T12:55:55;101660.60;;;22.30
67501;BMP180;54349;52.528;19.760;2023-05-07T12:58:33;101660.20;;;22.30
67501;BMP180;54349;52.528;19.760;2023-05-07T13:01:07;101660.80;;;22.30
67501;BMP180;54349;52.528;19.760;2023-05-07T13:03:38;101662.60;;;22.40
67501;BMP180;54349;52.528;19.760;2023-05-07T13:06:09;101655.00;;;22.40
67501;BMP180;54349;52.528;19.760;2023-05-07T13:08:41;101659.20;;;22.40
67501;BMP180;54349;52.528;19.760;2023-05-07T13:11:12;101662.00;;;22.40
67501;BMP180;54349;52.528;19.760;2023-05-07T13:13:41;101664.60;;;22.40
67501;BMP180;54349;52.528;19.760;2023-05-07T13:16:11;101669.60;;;22.40
67501;BMP180;54349;52.528;19.760;2023-05-07T13:18:40;101669.60;;;22.40
67501;BMP180;54349;52.528;19.760;2023-05-07T13:21:11;101667.40;;;22.40
67501;BMP180;54349;52.528;19.760;2023-05-07T13:23:41;101667.40;;;22.40
67501;BMP180;54349;52.528;19.760;2023-05-07T13:26:09;101664.20;;;22.44
67501;BMP180;54349;52.528;19.760;2023-05-07T13:28:56;101659.60;;;22.50
67501;BMP180;54349;52.528;19.760;2023-05-07T13:31:24;101658.20;;;22.50
67501;BMP180;54349;52.528;19.760;2023-05-07T13:33:53;101656.80;;;22.50
67501;BMP180;54349;52.528;19.760;2023-05-07T13:36:21;101655.40;;;22.54
67501;BMP180;54349;52.528;19.760;2023-05-07T13:38:50;101652.20;;;22.60
67501;BMP180;54349;52.528;19.760;2023-05-07T13:41:19;101655.00;;;22.60
67501;BMP180;54349;52.528;19.760;2023-05-07T13:43:48;101660.20;;;22.60
67501;BMP180;54349;52.528;19.760;2023-05-07T13:46:17;101660.40;;;22.60
67501;BMP180;54349;52.528;19.760;2023-05-07T13:48:45;101655.20;;;22.60
67501;BMP180;54349;52.528;19.760;2023-05-07T13:51:13;101652.00;;;22.60
67501;BMP180;54349;52.528;19.760;2023-05-07T13:53:41;101654.20;;;22.60
67501;BMP180;54349;52.528;19.760;2023-05-07T13:56:09;101652.40;;;22.60
67501;BMP180;54349;52.528;19.760;2023-05-07T13:58:38;101650.20;;;22.70
67501;BMP180;54349;52.528;19.760;2023-05-07T14:01:26;101651.60;;;22.70
67501;BMP180;54349;52.528;19.760;2023-05-07T14:03:56;101647.60;;;22.70
67501;BMP180;54349;52.528;19.760;2023-05-07T14:06:26;101647.00;;;22.70
67501;BMP180;54349;52.528;19.760;2023-05-07T14:08:54;101651.20;;;22.70
67501;BMP180;54349;52.528;19.760;2023-05-07T14:11:22;101648.00;;;22.72
67501;BMP180;54349;52.528;19.760;2023-05-07T14:13:50;101650.20;;;22.80
67501;BMP180;54349;52.528;19.760;2023-05-07T14:16:18;101649.40;;;22.80